Marylisa V — V7IM8 — position and weather

sailwx.info

Track history (hours):
 
Tides and Currents Weather Stations Pressure Air Temp Water Temp Dewpoint Dewpoint Depression Visibility Wind Speed Wind Dir Waves Ship Positions

Marylisa V

Last reported at 2017-Oct-02 09:07 UTC. Time now 2017-Nov-20 17:11 UTC.
Position N 27°31' W 013°57'.
Warning: this ship's position is 49 days out of date.

Length 190 m; draft 8.1 m.

Type: Ship. MMSI: 538002411.

Date/timePositionNaut miles runAvg speedWind from/ knotsBaromVisibWave heightAir tempDewpointWater temp
2017-Oct-02 09:07N 27°31' W 013°57'612.7
2017-Oct-02 08:36N 27°37' W 013°52'113.1
2017-Oct-02 08:30N 27°38' W 013°51'713.1
2017-Oct-02 07:58N 27°43' W 013°46'613.1
2017-Oct-02 07:30N 27°48' W 013°42'713.0
2017-Oct-02 07:00N 27°53' W 013°38'713.1
2017-Oct-02 06:30N 27°58' W 013°33'813.1
2017-Oct-02 05:52N 28°05' W 013°28'  
2017-Sep-25 08:54N 36°06' W 005°07'512.2
2017-Sep-25 08:30N 36°05' W 005°13'611.5
2017-Sep-25 08:00N 36°05' W 005°20'3 1.3
2017-Sep-25 05:49N 36°07' W 005°22'0 0.1
2017-Sep-25 05:28N 36°08' W 005°22'0 0.0
2017-Sep-25 04:58N 36°08' W 005°22'0 0.0
2017-Sep-25 04:25N 36°08' W 005°22'0 0.1
2017-Sep-25 03:40N 36°07' W 005°22'0 0.1
2017-Sep-25 03:25N 36°07' W 005°22'0 0.0
2017-Sep-25 02:52N 36°07' W 005°22'0 0.0
2017-Sep-25 02:25N 36°07' W 005°22'0 0.1
2017-Sep-25 01:52N 36°07' W 005°22'0 0.4
2017-Sep-25 01:25N 36°08' W 005°22'0 0.1
2017-Sep-25 00:58N 36°08' W 005°22'0 0.0
2017-Sep-25 00:28N 36°08' W 005°22'0 0.1
2017-Sep-24 23:55N 36°08' W 005°22'0 0.4
2017-Sep-24 23:28N 36°07' W 005°22'0 0.1
2017-Sep-24 22:58N 36°07' W 005°22'0 0.0
2017-Sep-24 22:28N 36°07' W 005°22'0 0.1
2017-Sep-24 21:58N 36°07' W 005°22'1 0.9
2017-Sep-24 20:22N 36°06' W 005°21'1 1.9
2017-Sep-24 20:00N 36°05' W 005°21'3 6.1
2017-Sep-24 19:30N 36°06' W 005°17'1 2.3
2017-Sep-24 19:00N 36°06' W 005°16'12 7.8
2017-Sep-24 17:29N 36°11' W 005°02'2 1.2
2017-Sep-24 15:57N 36°10' W 005°04'2 1.6
2017-Sep-24 14:42N 36°08' W 005°06'1 1.5
2017-Sep-24 14:12N 36°08' W 005°06'0 1.8
2017-Sep-24 13:58N 36°07' W 005°07'1 1.3
2017-Sep-24 13:24N 36°07' W 005°06'1 1.0
2017-Sep-24 12:17N 36°05' W 005°06'9 1.4
2017-Sep-24 05:40N 36°13' W 005°12'210.9
2017-Sep-24 05:30N 36°14' W 005°13'2 1.3
2017-Sep-24 03:33N 36°12' W 005°11'0 0.5
2017-Sep-24 03:30N 36°12' W 005°11'2 4.1
2017-Sep-24 03:00N 36°12' W 005°14'2 4.1
2017-Sep-24 02:29N 36°10' W 005°16'1 1.6
2017-Sep-24 02:00N 36°11' W 005°15'1 1.6
2017-Sep-24 01:27N 36°11' W 005°14'1 1.7
2017-Sep-24 00:42N 36°10' W 005°12'0 1.7
2017-Sep-24 00:26N 36°10' W 005°12'1 1.7
2017-Sep-23 23:57N 36°10' W 005°11'0 1.0
2017-Sep-23 23:30N 36°10' W 005°10'7 3.3
2017-Sep-23 21:26N 36°03' W 005°13'512.1
2017-Sep-23 21:00N 36°00' W 005°18'5 9.2
2017-Sep-23 20:30N 35°58' W 005°23'713.2
2017-Sep-23 20:00N 35°57' W 005°31'  
Track history (hours):
 
Tides and Currents Weather Stations Pressure Air Temp Water Temp Dewpoint Dewpoint Depression Visibility Wind Speed Wind Dir Waves Ship Positions

Marylisa V

Last reported at 2017-Oct-02 09:07 UTC. Time now 2017-Nov-20 17:11 UTC.
Position N 27°31' W 013°57'.
Warning: this ship's position is 49 days out of date.

Length 190 m; draft 8.1 m.

Type: Ship. MMSI: 538002411.

Date/timePositionNaut miles runAvg speedWind from/ knotsBaromVisibWave heightAir tempDewpointWater temp
2017-Oct-02 09:07N 27°31' W 013°57'612.7
2017-Oct-02 08:36N 27°37' W 013°52'113.1
2017-Oct-02 08:30N 27°38' W 013°51'713.1
2017-Oct-02 07:58N 27°43' W 013°46'613.1
2017-Oct-02 07:30N 27°48' W 013°42'713.0
2017-Oct-02 07:00N 27°53' W 013°38'713.1
2017-Oct-02 06:30N 27°58' W 013°33'813.1
2017-Oct-02 05:52N 28°05' W 013°28'  
2017-Sep-25 08:54N 36°06' W 005°07'512.2
2017-Sep-25 08:30N 36°05' W 005°13'611.5
2017-Sep-25 08:00N 36°05' W 005°20'3 1.3
2017-Sep-25 05:49N 36°07' W 005°22'0 0.1
2017-Sep-25 05:28N 36°08' W 005°22'0 0.0
2017-Sep-25 04:58N 36°08' W 005°22'0 0.0
2017-Sep-25 04:25N 36°08' W 005°22'0 0.1
2017-Sep-25 03:40N 36°07' W 005°22'0 0.1
2017-Sep-25 03:25N 36°07' W 005°22'0 0.0
2017-Sep-25 02:52N 36°07' W 005°22'0 0.0
2017-Sep-25 02:25N 36°07' W 005°22'0 0.1
2017-Sep-25 01:52N 36°07' W 005°22'0 0.4
2017-Sep-25 01:25N 36°08' W 005°22'0 0.1
2017-Sep-25 00:58N 36°08' W 005°22'0 0.0
2017-Sep-25 00:28N 36°08' W 005°22'0 0.1
2017-Sep-24 23:55N 36°08' W 005°22'0 0.4
2017-Sep-24 23:28N 36°07' W 005°22'0 0.1
2017-Sep-24 22:58N 36°07' W 005°22'0 0.0
2017-Sep-24 22:28N 36°07' W 005°22'0 0.1
2017-Sep-24 21:58N 36°07' W 005°22'1 0.9
2017-Sep-24 20:22N 36°06' W 005°21'1 1.9
2017-Sep-24 20:00N 36°05' W 005°21'3 6.1
2017-Sep-24 19:30N 36°06' W 005°17'1 2.3
2017-Sep-24 19:00N 36°06' W 005°16'12 7.8
2017-Sep-24 17:29N 36°11' W 005°02'2 1.2
2017-Sep-24 15:57N 36°10' W 005°04'2 1.6
2017-Sep-24 14:42N 36°08' W 005°06'1 1.5
2017-Sep-24 14:12N 36°08' W 005°06'0 1.8
2017-Sep-24 13:58N 36°07' W 005°07'1 1.3
2017-Sep-24 13:24N 36°07' W 005°06'1 1.0
2017-Sep-24 12:17N 36°05' W 005°06'9 1.4
2017-Sep-24 05:40N 36°13' W 005°12'210.9
2017-Sep-24 05:30N 36°14' W 005°13'2 1.3
2017-Sep-24 03:33N 36°12' W 005°11'0 0.5
2017-Sep-24 03:30N 36°12' W 005°11'2 4.1
2017-Sep-24 03:00N 36°12' W 005°14'2 4.1
2017-Sep-24 02:29N 36°10' W 005°16'1 1.6
2017-Sep-24 02:00N 36°11' W 005°15'1 1.6
2017-Sep-24 01:27N 36°11' W 005°14'1 1.7
2017-Sep-24 00:42N 36°10' W 005°12'0 1.7
2017-Sep-24 00:26N 36°10' W 005°12'1 1.7
2017-Sep-23 23:57N 36°10' W 005°11'0 1.0
2017-Sep-23 23:30N 36°10' W 005°10'7 3.3
2017-Sep-23 21:26N 36°03' W 005°13'512.1
2017-Sep-23 21:00N 36°00' W 005°18'5 9.2
2017-Sep-23 20:30N 35°58' W 005°23'713.2
2017-Sep-23 20:00N 35°57' W 005°31'  

Dump ship's entire track history